sensor_id;sensor_type;location;lat;lon;timestamp;P1;durP1;ratioP1;P2;durP2;ratioP2
52868;SDS011;39100;53.480;6.158;2024-01-30T10:32:01;8.20;;;3.70;;
52868;SDS011;39100;53.480;6.158;2024-01-30T10:34:27;8.25;;;5.38;;
52868;SDS011;39100;53.480;6.158;2024-01-30T10:37:07;9.73;;;5.22;;
52868;SDS011;39100;53.480;6.158;2024-01-30T10:39:45;9.75;;;5.25;;
52868;SDS011;39100;53.480;6.158;2024-01-30T10:42:12;8.25;;;5.00;;
52868;SDS011;39100;53.480;6.158;2024-01-30T10:44:53;9.32;;;4.90;;
52868;SDS011;39100;53.480;6.158;2024-01-30T10:47:28;5.90;;;4.65;;
52868;SDS011;39100;53.480;6.158;2024-01-30T10:49:55;9.40;;;5.38;;
52868;SDS011;39100;53.480;6.158;2024-01-30T10:52:22;8.18;;;4.80;;
52868;SDS011;39100;53.480;6.158;2024-01-30T10:54:51;9.38;;;4.88;;
52868;SDS011;39100;53.480;6.158;2024-01-30T10:57:17;9.93;;;5.10;;
52868;SDS011;39100;53.480;6.158;2024-01-30T10:59:43;7.38;;;4.72;;
52868;SDS011;39100;53.480;6.158;2024-01-30T11:02:09;4.70;;;3.53;;
52868;SDS011;39100;53.480;6.158;2024-01-30T11:04:36;8.25;;;4.38;;
52868;SDS011;39100;53.480;6.158;2024-01-30T11:07:03;5.15;;;3.25;;
52868;SDS011;39100;53.480;6.158;2024-01-30T11:09:39;4.60;;;2.58;;
52868;SDS011;39100;53.480;6.158;2024-01-30T11:12:11;4.55;;;2.50;;
52868;SDS011;39100;53.480;6.158;2024-01-30T11:14:37;6.25;;;2.58;;
52868;SDS011;39100;53.480;6.158;2024-01-30T11:17:05;3.53;;;2.00;;
52868;SDS011;39100;53.480;6.158;2024-01-30T11:19:31;6.03;;;2.08;;
52868;SDS011;39100;53.480;6.158;2024-01-30T11:21:57;3.50;;;1.52;;
52868;SDS011;39100;53.480;6.158;2024-01-30T11:24:23;4.60;;;1.58;;
52868;SDS011;39100;53.480;6.158;2024-01-30T11:26:49;5.32;;;1.15;;
52868;SDS011;39100;53.480;6.158;2024-01-30T11:29:23;4.28;;;1.30;;
52868;SDS011;39100;53.480;6.158;2024-01-30T11:31:53;5.00;;;1.60;;
52868;SDS011;39100;53.480;6.158;2024-01-30T11:34:20;2.78;;;1.10;;
52868;SDS011;39100;53.480;6.158;2024-01-30T11:36:52;4.28;;;0.90;;
52868;SDS011;39100;53.480;6.158;2024-01-30T11:39:24;2.78;;;0.82;;
52868;SDS011;39100;53.480;6.158;2024-01-30T11:41:51;5.38;;;1.10;;
52868;SDS011;39100;53.480;6.158;2024-01-30T11:44:19;5.72;;;1.00;;
52868;SDS011;39100;53.480;6.158;2024-01-30T11:46:46;2.40;;;0.50;;
52868;SDS011;39100;53.480;6.158;2024-01-30T11:49:16;3.83;;;0.90;;
52868;SDS011;39100;53.480;6.158;2024-01-30T11:51:43;4.10;;;0.63;;
52868;SDS011;39100;53.480;6.158;2024-01-30T11:54:10;4.82;;;1.45;;
52868;SDS011;39100;53.480;6.158;2024-01-30T11:56:36;1.02;;;0.88;;
52868;SDS011;39100;53.480;6.158;2024-01-30T11:59:03;4.18;;;1.40;;
52868;SDS011;39100;53.480;6.158;2024-01-30T12:01:29;3.60;;;1.00;;
52868;SDS011;39100;53.480;6.158;2024-01-30T12:03:56;3.60;;;0.70;;
52868;SDS011;39100;53.480;6.158;2024-01-30T12:06:22;3.92;;;0.95;;
52868;SDS011;39100;53.480;6.158;2024-01-30T12:09:03;4.53;;;0.70;;
52868;SDS011;39100;53.480;6.158;2024-01-30T12:11:29;2.72;;;0.52;;
52868;SDS011;39100;53.480;6.158;2024-01-30T12:13:55;1.95;;;0.32;;
52868;SDS011;39100;53.480;6.158;2024-01-30T12:16:21;1.25;;;0.30;;
52868;SDS011;39100;53.480;6.158;2024-01-30T12:18:47;3.35;;;0.93;;
52868;SDS011;39100;53.480;6.158;2024-01-30T12:21:16;1.42;;;0.30;;
52868;SDS011;39100;53.480;6.158;2024-01-30T12:23:42;1.77;;;0.40;;
52868;SDS011;39100;53.480;6.158;2024-01-30T12:26:08;1.30;;;0.40;;
52868;SDS011;39100;53.480;6.158;2024-01-30T12:28:34;1.48;;;0.35;;
52868;SDS011;39100;53.480;6.158;2024-01-30T12:31:03;2.13;;;0.50;;
52868;SDS011;39100;53.480;6.158;2024-01-30T12:33:29;0.90;;;0.40;;
52868;SDS011;39100;53.480;6.158;2024-01-30T12:35:56;3.80;;;0.63;;
52868;SDS011;39100;53.480;6.158;2024-01-30T12:38:23;2.83;;;0.60;;
52868;SDS011;39100;53.480;6.158;2024-01-30T12:40:50;2.08;;;0.30;;
52868;SDS011;39100;53.480;6.158;2024-01-30T12:43:19;0.63;;;0.30;;
52868;SDS011;39100;53.480;6.158;2024-01-30T12:45:45;1.58;;;0.50;;
52868;SDS011;39100;53.480;6.158;2024-01-30T12:48:11;1.17;;;0.20;;
52868;SDS011;39100;53.480;6.158;2024-01-30T12:50:37;2.58;;;0.10;;
52868;SDS011;39100;53.480;6.158;2024-01-30T12:53:02;1.27;;;0.20;;
52868;SDS011;39100;53.480;6.158;2024-01-30T12:55:29;2.50;;;0.95;;
52868;SDS011;39100;53.480;6.158;2024-01-30T12:57:55;4.82;;;3.13;;
52868;SDS011;39100;53.480;6.158;2024-01-30T13:00:21;5.05;;;2.67;;
52868;SDS011;39100;53.480;6.158;2024-01-30T13:02:47;3.85;;;1.92;;
52868;SDS011;39100;53.480;6.158;2024-01-30T13:05:13;1.67;;;1.27;;
52868;SDS011;39100;53.480;6.158;2024-01-30T13:07:39;2.42;;;0.52;;
52868;SDS011;39100;53.480;6.158;2024-01-30T13:10:05;1.65;;;0.60;;
52868;SDS011;39100;53.480;6.158;2024-01-30T13:12:31;1.17;;;0.30;;
52868;SDS011;39100;53.480;6.158;2024-01-30T13:14:58;1.08;;;0.20;;
52868;SDS011;39100;53.480;6.158;2024-01-30T13:17:25;2.20;;;0.30;;
52868;SDS011;39100;53.480;6.158;2024-01-30T13:19:51;3.03;;;0.40;;
52868;SDS011;39100;53.480;6.158;2024-01-30T13:22:17;0.73;;;0.13;;
52868;SDS011;39100;53.480;6.158;2024-01-30T13:24:42;1.08;;;0.40;;
52868;SDS011;39100;53.480;6.158;2024-01-30T13:27:08;0.40;;;0.20;;
52868;SDS011;39100;53.480;6.158;2024-01-30T13:29:34;1.70;;;0.38;;
52868;SDS011;39100;53.480;6.158;2024-01-30T13:31:59;2.20;;;0.50;;
52868;SDS011;39100;53.480;6.158;2024-01-30T13:34:25;1.08;;;0.30;;
52868;SDS011;39100;53.480;6.158;2024-01-30T13:36:50;1.55;;;0.65;;
52868;SDS011;39100;53.480;6.158;2024-01-30T13:39:17;1.67;;;0.70;;
52868;SDS011;39100;53.480;6.158;2024-01-30T13:41:42;1.05;;;0.30;;
52868;SDS011;39100;53.480;6.158;2024-01-30T13:44:08;2.05;;;0.20;;
52868;SDS011;39100;53.480;6.158;2024-01-30T13:46:34;1.17;;;0.55;;
52868;SDS011;39100;53.480;6.158;2024-01-30T13:49:01;2.47;;;0.90;;
52868;SDS011;39100;53.480;6.158;2024-01-30T13:51:27;1.38;;;0.30;;
52868;SDS011;39100;53.480;6.158;2024-01-30T13:53:52;1.75;;;0.40;;
52868;SDS011;39100;53.480;6.158;2024-01-30T13:56:19;1.38;;;0.30;;
52868;SDS011;39100;53.480;6.158;2024-01-30T13:58:46;0.60;;;0.20;;
52868;SDS011;39100;53.480;6.158;2024-01-30T14:01:13;1.05;;;0.43;;
52868;SDS011;39100;53.480;6.158;2024-01-30T14:03:39;1.40;;;0.10;;
52868;SDS011;39100;53.480;6.158;2024-01-30T14:06:04;1.00;;;0.17;;
52868;SDS011;39100;53.480;6.158;2024-01-30T14:08:30;1.60;;;0.30;;
52868;SDS011;39100;53.480;6.158;2024-01-30T14:10:56;0.40;;;0.20;;
52868;SDS011;39100;53.480;6.158;2024-01-30T14:13:22;0.10;;;0.10;;
52868;SDS011;39100;53.480;6.158;2024-01-30T14:15:48;0.30;;;0.10;;
52868;SDS011;39100;53.480;6.158;2024-01-30T14:18:14;0.55;;;0.10;;
52868;SDS011;39100;53.480;6.158;2024-01-30T14:20:40;1.15;;;0.10;;
52868;SDS011;39100;53.480;6.158;2024-01-30T14:23:06;1.65;;;0.20;;
52868;SDS011;39100;53.480;6.158;2024-01-30T14:25:32;1.17;;;0.20;;
52868;SDS011;39100;53.480;6.158;2024-01-30T14:27:57;0.90;;;0.30;;
52868;SDS011;39100;53.480;6.158;2024-01-30T14:30:23;0.85;;;0.28;;
52868;SDS011;39100;53.480;6.158;2024-01-30T14:32:49;1.00;;;0.40;;
52868;SDS011;39100;53.480;6.158;2024-01-30T14:35:15;1.38;;;0.98;;
52868;SDS011;39100;53.480;6.158;2024-01-30T14:37:40;2.72;;;0.30;;
52868;SDS011;39100;53.480;6.158;2024-01-30T14:40:07;1.83;;;0.70;;
52868;SDS011;39100;53.480;6.158;2024-01-30T14:42:33;1.95;;;0.40;;
52868;SDS011;39100;53.480;6.158;2024-01-30T14:44:58;3.10;;;0.85;;
52868;SDS011;39100;53.480;6.158;2024-01-30T14:47:24;4.47;;;1.48;;
52868;SDS011;39100;53.480;6.158;2024-01-30T14:49:51;2.30;;;0.75;;
52868;SDS011;39100;53.480;6.158;2024-01-30T14:52:17;2.42;;;0.60;;
52868;SDS011;39100;53.480;6.158;2024-01-30T14:54:43;1.35;;;0.50;;
52868;SDS011;39100;53.480;6.158;2024-01-30T14:57:09;1.60;;;0.57;;
52868;SDS011;39100;53.480;6.158;2024-01-30T14:59:35;3.63;;;0.52;;
52868;SDS011;39100;53.480;6.158;2024-01-30T15:02:01;1.90;;;0.40;;
52868;SDS011;39100;53.480;6.158;2024-01-30T15:04:27;1.27;;;0.30;;
52868;SDS011;39100;53.480;6.158;2024-01-30T15:06:53;2.17;;;0.70;;
52868;SDS011;39100;53.480;6.158;2024-01-30T15:09:19;3.38;;;0.90;;
52868;SDS011;39100;53.480;6.158;2024-01-30T15:11:47;1.63;;;0.68;;
52868;SDS011;39100;53.480;6.158;2024-01-30T15:14:13;3.63;;;0.80;;
52868;SDS011;39100;53.480;6.158;2024-01-30T15:16:39;2.25;;;0.40;;
52868;SDS011;39100;53.480;6.158;2024-01-30T15:19:05;1.85;;;0.60;;
52868;SDS011;39100;53.480;6.158;2024-01-30T15:21:31;1.35;;;0.65;;
52868;SDS011;39100;53.480;6.158;2024-01-30T15:23:57;1.67;;;0.40;;
52868;SDS011;39100;53.480;6.158;2024-01-30T15:26:22;2.90;;;0.47;;
52868;SDS011;39100;53.480;6.158;2024-01-30T15:28:48;4.25;;;0.95;;
52868;SDS011;39100;53.480;6.158;2024-01-30T15:31:13;2.42;;;0.95;;
52868;SDS011;39100;53.480;6.158;2024-01-30T15:33:39;2.22;;;1.00;;
52868;SDS011;39100;53.480;6.158;2024-01-30T15:36:05;4.18;;;1.33;;
52868;SDS011;39100;53.480;6.158;2024-01-30T15:38:31;6.05;;;1.23;;
52868;SDS011;39100;53.480;6.158;2024-01-30T15:40:56;5.03;;;1.20;;
52868;SDS011;39100;53.480;6.158;2024-01-30T15:43:23;6.35;;;1.58;;
52868;SDS011;39100;53.480;6.158;2024-01-30T15:45:49;5.03;;;1.88;;
52868;SDS011;39100;53.480;6.158;2024-01-30T15:48:18;7.45;;;1.63;;
52868;SDS011;39100;53.480;6.158;2024-01-30T15:50:44;4.68;;;1.02;;
52868;SDS011;39100;53.480;6.158;2024-01-30T15:53:10;1.83;;;1.10;;
52868;SDS011;39100;53.480;6.158;2024-01-30T15:55:36;4.93;;;1.60;;
52868;SDS011;39100;53.480;6.158;2024-01-30T15:58:02;5.18;;;1.13;;
52868;SDS011;39100;53.480;6.158;2024-01-30T16:00:28;7.10;;;1.27;;
52868;SDS011;39100;53.480;6.158;2024-01-30T16:02:54;4.30;;;1.02;;
52868;SDS011;39100;53.480;6.158;2024-01-30T16:05:19;8.18;;;1.95;;
52868;SDS011;39100;53.480;6.158;2024-01-30T16:07:45;7.57;;;1.40;;
52868;SDS011;39100;53.480;6.158;2024-01-30T16:10:11;7.20;;;2.88;;
52868;SDS011;39100;53.480;6.158;2024-01-30T16:12:41;9.65;;;3.60;;
52868;SDS011;39100;53.480;6.158;2024-01-30T16:15:13;8.07;;;3.05;;
52868;SDS011;39100;53.480;6.158;2024-01-30T16:17:39;8.18;;;2.38;;
52868;SDS011;39100;53.480;6.158;2024-01-30T16:20:04;7.55;;;2.25;;
52868;SDS011;39100;53.480;6.158;2024-01-30T16:22:31;5.72;;;1.58;;
52868;SDS011;39100;53.480;6.158;2024-01-30T16:24:57;8.85;;;2.20;;
52868;SDS011;39100;53.480;6.158;2024-01-30T16:27:23;9.23;;;1.83;;
52868;SDS011;39100;53.480;6.158;2024-01-30T16:29:48;5.65;;;0.88;;
52868;SDS011;39100;53.480;6.158;2024-01-30T16:32:14;8.10;;;1.27;;
52868;SDS011;39100;53.480;6.158;2024-01-30T16:34:39;1.80;;;0.60;;
52868;SDS011;39100;53.480;6.158;2024-01-30T16:37:05;5.00;;;1.02;;
52868;SDS011;39100;53.480;6.158;2024-01-30T16:39:31;9.82;;;1.42;;
52868;SDS011;39100;53.480;6.158;2024-01-30T16:41:57;9.85;;;2.88;;
52868;SDS011;39100;53.480;6.158;2024-01-30T16:44:23;8.20;;;0.88;;
52868;SDS011;39100;53.480;6.158;2024-01-30T16:46:49;6.65;;;1.15;;
52868;SDS011;39100;53.480;6.158;2024-01-30T16:49:15;3.88;;;1.23;;
52868;SDS011;39100;53.480;6.158;2024-01-30T16:51:40;9.45;;;1.77;;
52868;SDS011;39100;53.480;6.158;2024-01-30T16:54:06;7.90;;;1.90;;
52868;SDS011;39100;53.480;6.158;2024-01-30T16:56:32;8.82;;;1.58;;
52868;SDS011;39100;53.480;6.158;2024-01-30T16:58:57;6.88;;;1.15;;
52868;SDS011;39100;53.480;6.158;2024-01-30T17:01:23;9.65;;;1.60;;
52868;SDS011;39100;53.480;6.158;2024-01-30T17:03:50;5.50;;;0.93;;
52868;SDS011;39100;53.480;6.158;2024-01-30T17:06:15;6.90;;;1.38;;
52868;SDS011;39100;53.480;6.158;2024-01-30T17:08:41;12.25;;;1.75;;
52868;SDS011;39100;53.480;6.158;2024-01-30T17:11:07;5.85;;;0.90;;
52868;SDS011;39100;53.480;6.158;2024-01-30T17:13:34;5.75;;;1.23;;
52868;SDS011;39100;53.480;6.158;2024-01-30T17:16:00;5.32;;;1.25;;
52868;SDS011;39100;53.480;6.158;2024-01-30T17:18:26;7.25;;;1.58;;
52868;SDS011;39100;53.480;6.158;2024-01-30T17:20:52;7.28;;;2.88;;
52868;SDS011;39100;53.480;6.158;2024-01-30T17:23:17;6.75;;;1.45;;
52868;SDS011;39100;53.480;6.158;2024-01-30T17:25:43;4.72;;;1.33;;
52868;SDS011;39100;53.480;6.158;2024-01-30T17:28:08;7.68;;;2.33;;
52868;SDS011;39100;53.480;6.158;2024-01-30T17:30:35;4.53;;;0.73;;
52868;SDS011;39100;53.480;6.158;2024-01-30T17:33:02;2.45;;;0.70;;
52868;SDS011;39100;53.480;6.158;2024-01-30T17:35:27;6.07;;;0.73;;
52868;SDS011;39100;53.480;6.158;2024-01-30T17:37:53;3.45;;;0.90;;
52868;SDS011;39100;53.480;6.158;2024-01-30T17:40:19;3.30;;;0.60;;
52868;SDS011;39100;53.480;6.158;2024-01-30T17:42:44;6.20;;;0.70;;
52868;SDS011;39100;53.480;6.158;2024-01-30T17:45:10;7.32;;;1.02;;
52868;SDS011;39100;53.480;6.158;2024-01-30T17:47:37;6.68;;;0.77;;
52868;SDS011;39100;53.480;6.158;2024-01-30T17:50:03;4.15;;;0.55;;
52868;SDS011;39100;53.480;6.158;2024-01-30T17:52:30;4.60;;;1.10;;
52868;SDS011;39100;53.480;6.158;2024-01-30T17:54:56;5.15;;;0.80;;
52868;SDS011;39100;53.480;6.158;2024-01-30T17:57:22;3.50;;;1.20;;
52868;SDS011;39100;53.480;6.158;2024-01-30T17:59:48;6.50;;;2.78;;
52868;SDS011;39100;53.480;6.158;2024-01-30T18:02:14;8.82;;;4.07;;
52868;SDS011;39100;53.480;6.158;2024-01-30T18:04:40;13.77;;;8.30;;
52868;SDS011;39100;53.480;6.158;2024-01-30T18:07:05;12.32;;;10.18;;
52868;SDS011;39100;53.480;6.158;2024-01-30T18:09:31;21.02;;;12.32;;
52868;SDS011;39100;53.480;6.158;2024-01-30T18:11:57;16.92;;;11.73;;
52868;SDS011;39100;53.480;6.158;2024-01-30T18:14:22;17.15;;;12.63;;
52868;SDS011;39100;53.480;6.158;2024-01-30T18:16:48;15.63;;;13.65;;
52868;SDS011;39100;53.480;6.158;2024-01-30T18:19:13;29.58;;;22.40;;
52868;SDS011;39100;53.480;6.158;2024-01-30T18:21:39;31.40;;;23.10;;
52868;SDS011;39100;53.480;6.158;2024-01-30T18:24:05;31.48;;;21.83;;
52868;SDS011;39100;53.480;6.158;2024-01-30T18:26:31;27.60;;;19.10;;
52868;SDS011;39100;53.480;6.158;2024-01-30T18:28:57;33.38;;;25.73;;
52868;SDS011;39100;53.480;6.158;2024-01-30T18:31:23;32.25;;;28.25;;
52868;SDS011;39100;53.480;6.158;2024-01-30T18:33:49;32.58;;;28.60;;
52868;SDS011;39100;53.480;6.158;2024-01-30T18:36:21;38.97;;;28.73;;
52868;SDS011;39100;53.480;6.158;2024-01-30T18:38:50;35.33;;;28.58;;
52868;SDS011;39100;53.480;6.158;2024-01-30T18:41:16;25.52;;;22.48;;
52868;SDS011;39100;53.480;6.158;2024-01-30T18:43:42;23.95;;;18.80;;
52868;SDS011;39100;53.480;6.158;2024-01-30T18:46:09;25.55;;;15.68;;
52868;SDS011;39100;53.480;6.158;2024-01-30T18:48:35;24.00;;;14.48;;
52868;SDS011;39100;53.480;6.158;2024-01-30T18:51:04;18.85;;;13.63;;
52868;SDS011;39100;53.480;6.158;2024-01-30T18:53:30;17.88;;;14.25;;
52868;SDS011;39100;53.480;6.158;2024-01-30T18:55:56;18.45;;;15.57;;
52868;SDS011;39100;53.480;6.158;2024-01-30T18:58:22;16.45;;;12.27;;
52868;SDS011;39100;53.480;6.158;2024-01-30T19:00:48;16.98;;;11.02;;
52868;SDS011;39100;53.480;6.158;2024-01-30T19:03:14;22.50;;;13.50;;
52868;SDS011;39100;53.480;6.158;2024-01-30T19:05:42;21.20;;;13.43;;
52868;SDS011;39100;53.480;6.158;2024-01-30T19:08:08;17.52;;;11.98;;
52868;SDS011;39100;53.480;6.158;2024-01-30T19:10:33;18.55;;;10.95;;
52868;SDS011;39100;53.480;6.158;2024-01-30T19:13:00;20.02;;;14.15;;
52868;SDS011;39100;53.480;6.158;2024-01-30T19:15:26;20.75;;;14.32;;
52868;SDS011;39100;53.480;6.158;2024-01-30T19:17:52;21.25;;;12.68;;
52868;SDS011;39100;53.480;6.158;2024-01-30T19:20:17;19.98;;;12.93;;
52868;SDS011;39100;53.480;6.158;2024-01-30T19:22:43;19.85;;;13.52;;
52868;SDS011;39100;53.480;6.158;2024-01-30T19:25:09;16.73;;;12.95;;
52868;SDS011;39100;53.480;6.158;2024-01-30T19:27:35;15.45;;;11.40;;
52868;SDS011;39100;53.480;6.158;2024-01-30T19:30:00;17.92;;;9.55;;
52868;SDS011;39100;53.480;6.158;2024-01-30T19:32:26;14.02;;;6.88;;
52868;SDS011;39100;53.480;6.158;2024-01-30T19:34:52;11.00;;;4.82;;
52868;SDS011;39100;53.480;6.158;2024-01-30T19:37:18;8.30;;;3.28;;
52868;SDS011;39100;53.480;6.158;2024-01-30T19:39:48;11.05;;;3.75;;
52868;SDS011;39100;53.480;6.158;2024-01-30T19:42:14;5.82;;;2.80;;
52868;SDS011;39100;53.480;6.158;2024-01-30T19:44:40;7.80;;;3.03;;
52868;SDS011;39100;53.480;6.158;2024-01-30T19:47:05;10.05;;;3.05;;
52868;SDS011;39100;53.480;6.158;2024-01-30T19:49:34;8.93;;;1.73;;
52868;SDS011;39100;53.480;6.158;2024-01-30T19:52:07;3.28;;;1.63;;
52868;SDS011;39100;53.480;6.158;2024-01-30T19:54:34;7.47;;;1.80;;
52868;SDS011;39100;53.480;6.158;2024-01-30T19:57:00;7.75;;;2.72;;
52868;SDS011;39100;53.480;6.158;2024-01-30T19:59:29;5.18;;;2.10;;
52868;SDS011;39100;53.480;6.158;2024-01-30T20:01:55;3.53;;;1.33;;
52868;SDS011;39100;53.480;6.158;2024-01-30T20:04:22;7.47;;;2.45;;
52868;SDS011;39100;53.480;6.158;2024-01-30T20:06:48;8.95;;;2.83;;
52868;SDS011;39100;53.480;6.158;2024-01-30T20:09:14;8.88;;;1.60;;
52868;SDS011;39100;53.480;6.158;2024-01-30T20:11:40;5.97;;;1.77;;
52868;SDS011;39100;53.480;6.158;2024-01-30T20:14:06;4.72;;;1.40;;
52868;SDS011;39100;53.480;6.158;2024-01-30T20:16:35;4.90;;;1.40;;
52868;SDS011;39100;53.480;6.158;2024-01-30T20:19:05;4.22;;;0.98;;
52868;SDS011;39100;53.480;6.158;2024-01-30T20:21:32;5.90;;;1.45;;
52868;SDS011;39100;53.480;6.158;2024-01-30T20:23:58;3.67;;;1.95;;
52868;SDS011;39100;53.480;6.158;2024-01-30T20:26:24;2.65;;;0.95;;
52868;SDS011;39100;53.480;6.158;2024-01-30T20:28:50;4.65;;;0.90;;
52868;SDS011;39100;53.480;6.158;2024-01-30T20:31:19;3.50;;;0.47;;
52868;SDS011;39100;53.480;6.158;2024-01-30T20:33:49;3.38;;;0.75;;
52868;SDS011;39100;53.480;6.158;2024-01-30T20:36:15;1.77;;;0.73;;
52868;SDS011;39100;53.480;6.158;2024-01-30T20:38:42;3.03;;;0.75;;
52868;SDS011;39100;53.480;6.158;2024-01-30T20:41:08;2.25;;;0.50;;
52868;SDS011;39100;53.480;6.158;2024-01-30T20:43:36;3.30;;;1.10;;
52868;SDS011;39100;53.480;6.158;2024-01-30T20:46:02;3.47;;;0.77;;
52868;SDS011;39100;53.480;6.158;2024-01-30T20:48:27;5.68;;;0.70;;
52868;SDS011;39100;53.480;6.158;2024-01-30T20:50:53;4.82;;;1.15;;
52868;SDS011;39100;53.480;6.158;2024-01-30T20:53:19;2.47;;;0.50;;
52868;SDS011;39100;53.480;6.158;2024-01-30T20:55:45;2.72;;;0.65;;
52868;SDS011;39100;53.480;6.158;2024-01-30T20:58:10;1.55;;;0.73;;
52868;SDS011;39100;53.480;6.158;2024-01-30T21:00:36;3.45;;;0.88;;
52868;SDS011;39100;53.480;6.158;2024-01-30T21:03:01;4.60;;;1.42;;
52868;SDS011;39100;53.480;6.158;2024-01-30T21:05:28;0.70;;;0.30;;
52868;SDS011;39100;53.480;6.158;2024-01-30T21:07:53;2.70;;;1.20;;
52868;SDS011;39100;53.480;6.158;2024-01-30T21:10:19;3.28;;;0.55;;
52868;SDS011;39100;53.480;6.158;2024-01-30T21:12:45;2.90;;;0.50;;
52868;SDS011;39100;53.480;6.158;2024-01-30T21:15:10;2.60;;;0.47;;
52868;SDS011;39100;53.480;6.158;2024-01-30T21:17:36;2.67;;;0.90;;
52868;SDS011;39100;53.480;6.158;2024-01-30T21:20:02;0.70;;;0.35;;
52868;SDS011;39100;53.480;6.158;2024-01-30T21:22:28;3.78;;;0.50;;
52868;SDS011;39100;53.480;6.158;2024-01-30T21:24:54;0.88;;;0.30;;
52868;SDS011;39100;53.480;6.158;2024-01-30T21:27:19;2.50;;;0.70;;
52868;SDS011;39100;53.480;6.158;2024-01-30T21:29:45;2.38;;;0.50;;
52868;SDS011;39100;53.480;6.158;2024-01-30T21:32:13;2.35;;;0.30;;
52868;SDS011;39100;53.480;6.158;2024-01-30T21:34:40;2.25;;;0.57;;
52868;SDS011;39100;53.480;6.158;2024-01-30T21:37:06;1.40;;;0.32;;
52868;SDS011;39100;53.480;6.158;2024-01-30T21:39:32;1.02;;;0.43;;
52868;SDS011;39100;53.480;6.158;2024-01-30T21:41:57;1.35;;;0.55;;
52868;SDS011;39100;53.480;6.158;2024-01-30T21:44:23;4.18;;;0.63;;
52868;SDS011;39100;53.480;6.158;2024-01-30T21:46:49;3.55;;;0.95;;
52868;SDS011;39100;53.480;6.158;2024-01-30T21:49:15;4.38;;;0.47;;
52868;SDS011;39100;53.480;6.158;2024-01-30T21:51:43;2.78;;;0.30;;
52868;SDS011;39100;53.480;6.158;2024-01-30T21:54:09;2.78;;;1.27;;
52868;SDS011;39100;53.480;6.158;2024-01-30T21:56:34;2.05;;;0.55;;
52868;SDS011;39100;53.480;6.158;2024-01-30T21:59:02;2.05;;;0.40;;
52868;SDS011;39100;53.480;6.158;2024-01-30T22:01:28;1.25;;;0.80;;
52868;SDS011;39100;53.480;6.158;2024-01-30T22:03:54;1.55;;;0.30;;
52868;SDS011;39100;53.480;6.158;2024-01-30T22:06:19;2.83;;;0.40;;
52868;SDS011;39100;53.480;6.158;2024-01-30T22:08:45;4.78;;;0.52;;
52868;SDS011;39100;53.480;6.158;2024-01-30T22:11:12;4.30;;;0.45;;
52868;SDS011;39100;53.480;6.158;2024-01-30T22:13:37;3.38;;;0.40;;
52868;SDS011;39100;53.480;6.158;2024-01-30T22:16:03;5.43;;;0.45;;
52868;SDS011;39100;53.480;6.158;2024-01-30T22:18:29;4.80;;;0.70;;
52868;SDS011;39100;53.480;6.158;2024-01-30T22:20:55;1.55;;;0.20;;
52868;SDS011;39100;53.480;6.158;2024-01-30T22:23:21;1.13;;;0.20;;
52868;SDS011;39100;53.480;6.158;2024-01-30T22:25:46;2.40;;;0.40;;
52868;SDS011;39100;53.480;6.158;2024-01-30T22:28:12;2.67;;;0.22;;
52868;SDS011;39100;53.480;6.158;2024-01-30T22:30:37;1.45;;;0.40;;
52868;SDS011;39100;53.480;6.158;2024-01-30T22:33:03;0.20;;;0.10;;
52868;SDS011;39100;53.480;6.158;2024-01-30T22:35:30;2.33;;;0.10;;
52868;SDS011;39100;53.480;6.158;2024-01-30T22:37:56;2.42;;;0.30;;
52868;SDS011;39100;53.480;6.158;2024-01-30T22:40:22;1.17;;;0.20;;
52868;SDS011;39100;53.480;6.158;2024-01-30T22:42:47;0.85;;;0.50;;
52868;SDS011;39100;53.480;6.158;2024-01-30T22:45:13;1.95;;;0.15;;
52868;SDS011;39100;53.480;6.158;2024-01-30T22:47:38;2.25;;;0.35;;
52868;SDS011;39100;53.480;6.158;2024-01-30T22:50:04;1.75;;;0.10;;
52868;SDS011;39100;53.480;6.158;2024-01-30T22:52:30;4.00;;;0.30;;
52868;SDS011;39100;53.480;6.158;2024-01-30T22:54:56;3.15;;;0.30;;
52868;SDS011;39100;53.480;6.158;2024-01-30T22:57:22;1.25;;;0.10;;
52868;SDS011;39100;53.480;6.158;2024-01-30T22:59:47;1.27;;;0.22;;
52868;SDS011;39100;53.480;6.158;2024-01-30T23:02:13;0.28;;;0.20;;
52868;SDS011;39100;53.480;6.158;2024-01-30T23:04:41;2.20;;;0.63;;
52868;SDS011;39100;53.480;6.158;2024-01-30T23:07:06;1.27;;;0.30;;
52868;SDS011;39100;53.480;6.158;2024-01-30T23:09:32;2.63;;;0.52;;
52868;SDS011;39100;53.480;6.158;2024-01-30T23:11:57;1.75;;;0.90;;
52868;SDS011;39100;53.480;6.158;2024-01-30T23:14:23;2.97;;;0.73;;
52868;SDS011;39100;53.480;6.158;2024-01-30T23:16:49;1.45;;;0.10;;
52868;SDS011;39100;53.480;6.158;2024-01-30T23:19:15;2.22;;;0.57;;
52868;SDS011;39100;53.480;6.158;2024-01-30T23:21:41;2.63;;;0.40;;
52868;SDS011;39100;53.480;6.158;2024-01-30T23:24:06;3.08;;;0.63;;
52868;SDS011;39100;53.480;6.158;2024-01-30T23:26:32;2.90;;;0.50;;
52868;SDS011;39100;53.480;6.158;2024-01-30T23:28:58;1.83;;;0.20;;
52868;SDS011;39100;53.480;6.158;2024-01-30T23:31:23;0.93;;;0.38;;
52868;SDS011;39100;53.480;6.158;2024-01-30T23:33:49;0.77;;;0.45;;
52868;SDS011;39100;53.480;6.158;2024-01-30T23:36:14;1.15;;;0.45;;
52868;SDS011;39100;53.480;6.158;2024-01-30T23:38:40;5.03;;;0.45;;
52868;SDS011;39100;53.480;6.158;2024-01-30T23:41:05;3.30;;;0.43;;
52868;SDS011;39100;53.480;6.158;2024-01-30T23:43:31;3.50;;;0.20;;
52868;SDS011;39100;53.480;6.158;2024-01-30T23:45:58;1.65;;;0.63;;
52868;SDS011;39100;53.480;6.158;2024-01-30T23:48:23;3.40;;;0.32;;
52868;SDS011;39100;53.480;6.158;2024-01-30T23:50:49;0.77;;;0.10;;
52868;SDS011;39100;53.480;6.158;2024-01-30T23:53:16;1.15;;;0.10;;
52868;SDS011;39100;53.480;6.158;2024-01-30T23:55:41;0.75;;;0.03;;
52868;SDS011;39100;53.480;6.158;2024-01-30T23:58:07;0.98;;;0.38;;
